sensor_id;sensor_type;location;lat;lon;timestamp;P1;durP1;ratioP1;P2;durP2;ratioP2
62574;SDS011;70119;45.638;11.714;2023-06-10T00:02:08;6.35;;;4.40;;
62574;SDS011;70119;45.638;11.714;2023-06-10T00:04:34;6.43;;;4.00;;
62574;SDS011;70119;45.638;11.714;2023-06-10T00:07:04;5.13;;;4.00;;
62574;SDS011;70119;45.638;11.714;2023-06-10T00:09:37;6.18;;;3.83;;
62574;SDS011;70119;45.638;11.714;2023-06-10T00:12:07;5.28;;;3.65;;
62574;SDS011;70119;45.638;11.714;2023-06-10T00:14:36;5.07;;;3.47;;
62574;SDS011;70119;45.638;11.714;2023-06-10T00:17:03;4.90;;;3.67;;
62574;SDS011;70119;45.638;11.714;2023-06-10T00:19:30;4.63;;;3.75;;
62574;SDS011;70119;45.638;11.714;2023-06-10T00:21:57;4.13;;;3.53;;
62574;SDS011;70119;45.638;11.714;2023-06-10T00:24:23;4.22;;;3.50;;
62574;SDS011;70119;45.638;11.714;2023-06-10T00:26:49;4.65;;;3.67;;
62574;SDS011;70119;45.638;11.714;2023-06-10T00:29:14;4.70;;;3.72;;
62574;SDS011;70119;45.638;11.714;2023-06-10T00:31:41;4.80;;;3.88;;
62574;SDS011;70119;45.638;11.714;2023-06-10T00:34:07;4.70;;;3.33;;
62574;SDS011;70119;45.638;11.714;2023-06-10T00:36:33;4.82;;;3.60;;
62574;SDS011;70119;45.638;11.714;2023-06-10T00:39:01;5.45;;;3.80;;
62574;SDS011;70119;45.638;11.714;2023-06-10T00:41:27;5.07;;;3.70;;
62574;SDS011;70119;45.638;11.714;2023-06-10T00:43:53;4.55;;;3.50;;
62574;SDS011;70119;45.638;11.714;2023-06-10T00:46:19;4.82;;;3.42;;
62574;SDS011;70119;45.638;11.714;2023-06-10T00:48:47;5.30;;;3.60;;
62574;SDS011;70119;45.638;11.714;2023-06-10T00:51:13;4.68;;;3.42;;
62574;SDS011;70119;45.638;11.714;2023-06-10T00:53:39;4.43;;;3.35;;
62574;SDS011;70119;45.638;11.714;2023-06-10T00:56:06;4.22;;;3.30;;
62574;SDS011;70119;45.638;11.714;2023-06-10T00:58:32;4.70;;;3.38;;
62574;SDS011;70119;45.638;11.714;2023-06-10T01:00:59;5.57;;;3.30;;
62574;SDS011;70119;45.638;11.714;2023-06-10T01:03:25;5.38;;;3.47;;
62574;SDS011;70119;45.638;11.714;2023-06-10T01:05:53;5.25;;;3.33;;
62574;SDS011;70119;45.638;11.714;2023-06-10T01:08:41;3.95;;;3.20;;
62574;SDS011;70119;45.638;11.714;2023-06-10T01:11:14;4.13;;;3.20;;
62574;SDS011;70119;45.638;11.714;2023-06-10T01:13:46;5.18;;;3.40;;
62574;SDS011;70119;45.638;11.714;2023-06-10T01:16:17;4.70;;;3.22;;
62574;SDS011;70119;45.638;11.714;2023-06-10T01:18:47;3.95;;;3.08;;
62574;SDS011;70119;45.638;11.714;2023-06-10T01:21:14;4.40;;;3.40;;
62574;SDS011;70119;45.638;11.714;2023-06-10T01:23:50;4.35;;;3.10;;
62574;SDS011;70119;45.638;11.714;2023-06-10T01:26:17;4.00;;;3.30;;
62574;SDS011;70119;45.638;11.714;2023-06-10T01:28:51;3.83;;;3.20;;
62574;SDS011;70119;45.638;11.714;2023-06-10T01:34:16;4.50;;;3.50;;
62574;SDS011;70119;45.638;11.714;2023-06-10T01:36:47;5.13;;;3.20;;
62574;SDS011;70119;45.638;11.714;2023-06-10T01:39:15;3.92;;;3.03;;
62574;SDS011;70119;45.638;11.714;2023-06-10T01:41:43;5.35;;;3.90;;
62574;SDS011;70119;45.638;11.714;2023-06-10T01:44:10;4.75;;;3.47;;
62574;SDS011;70119;45.638;11.714;2023-06-10T01:46:36;4.47;;;3.45;;
62574;SDS011;70119;45.638;11.714;2023-06-10T01:49:02;3.97;;;3.10;;
62574;SDS011;70119;45.638;11.714;2023-06-10T01:51:28;4.20;;;3.45;;
62574;SDS011;70119;45.638;11.714;2023-06-10T01:53:57;4.03;;;3.25;;
62574;SDS011;70119;45.638;11.714;2023-06-10T01:56:23;5.18;;;3.40;;
62574;SDS011;70119;45.638;11.714;2023-06-10T01:58:48;7.55;;;4.97;;
62574;SDS011;70119;45.638;11.714;2023-06-10T02:01:15;4.50;;;3.50;;
62574;SDS011;70119;45.638;11.714;2023-06-10T02:03:44;4.85;;;3.85;;
62574;SDS011;70119;45.638;11.714;2023-06-10T02:06:10;3.83;;;3.30;;
62574;SDS011;70119;45.638;11.714;2023-06-10T02:08:35;4.40;;;3.50;;
62574;SDS011;70119;45.638;11.714;2023-06-10T02:11:01;4.53;;;3.83;;
62574;SDS011;70119;45.638;11.714;2023-06-10T02:13:27;5.93;;;4.00;;
62574;SDS011;70119;45.638;11.714;2023-06-10T02:15:53;5.22;;;3.90;;
62574;SDS011;70119;45.638;11.714;2023-06-10T02:18:19;5.07;;;4.00;;
62574;SDS011;70119;45.638;11.714;2023-06-10T02:20:46;4.80;;;3.80;;
62574;SDS011;70119;45.638;11.714;2023-06-10T02:23:12;5.03;;;3.83;;
62574;SDS011;70119;45.638;11.714;2023-06-10T02:25:38;6.22;;;4.85;;
62574;SDS011;70119;45.638;11.714;2023-06-10T02:28:04;7.22;;;4.22;;
62574;SDS011;70119;45.638;11.714;2023-06-10T02:30:30;4.88;;;3.80;;
62574;SDS011;70119;45.638;11.714;2023-06-10T02:32:56;6.18;;;4.60;;
62574;SDS011;70119;45.638;11.714;2023-06-10T02:35:22;6.13;;;4.88;;
62574;SDS011;70119;45.638;11.714;2023-06-10T02:37:49;5.47;;;4.20;;
62574;SDS011;70119;45.638;11.714;2023-06-10T02:40:15;5.35;;;3.97;;
62574;SDS011;70119;45.638;11.714;2023-06-10T02:42:41;5.43;;;4.03;;
62574;SDS011;70119;45.638;11.714;2023-06-10T02:45:07;5.20;;;3.88;;
62574;SDS011;70119;45.638;11.714;2023-06-10T02:47:34;6.40;;;4.13;;
62574;SDS011;70119;45.638;11.714;2023-06-10T02:49:59;5.53;;;3.80;;
62574;SDS011;70119;45.638;11.714;2023-06-10T02:52:25;4.38;;;3.10;;
62574;SDS011;70119;45.638;11.714;2023-06-10T02:54:52;5.20;;;3.75;;
62574;SDS011;70119;45.638;11.714;2023-06-10T02:57:17;3.72;;;3.25;;
62574;SDS011;70119;45.638;11.714;2023-06-10T02:59:43;5.10;;;3.47;;
62574;SDS011;70119;45.638;11.714;2023-06-10T03:02:10;4.45;;;3.70;;
62574;SDS011;70119;45.638;11.714;2023-06-10T03:04:37;4.50;;;3.60;;
62574;SDS011;70119;45.638;11.714;2023-06-10T03:07:03;4.88;;;3.60;;
62574;SDS011;70119;45.638;11.714;2023-06-10T03:09:32;5.68;;;3.80;;
62574;SDS011;70119;45.638;11.714;2023-06-10T03:11:58;4.97;;;3.60;;
62574;SDS011;70119;45.638;11.714;2023-06-10T03:14:25;4.82;;;3.53;;
62574;SDS011;70119;45.638;11.714;2023-06-10T03:16:51;5.55;;;3.78;;
62574;SDS011;70119;45.638;11.714;2023-06-10T03:19:17;4.47;;;3.40;;
62574;SDS011;70119;45.638;11.714;2023-06-10T03:21:43;3.92;;;3.15;;
62574;SDS011;70119;45.638;11.714;2023-06-10T03:24:10;4.28;;;3.30;;
62574;SDS011;70119;45.638;11.714;2023-06-10T03:26:36;5.00;;;3.47;;
62574;SDS011;70119;45.638;11.714;2023-06-10T03:29:02;5.47;;;3.88;;
62574;SDS011;70119;45.638;11.714;2023-06-10T03:31:28;4.40;;;3.38;;
62574;SDS011;70119;45.638;11.714;2023-06-10T03:33:55;3.80;;;3.28;;
62574;SDS011;70119;45.638;11.714;2023-06-10T03:36:21;4.13;;;3.20;;
62574;SDS011;70119;45.638;11.714;2023-06-10T03:38:47;3.85;;;3.40;;
62574;SDS011;70119;45.638;11.714;2023-06-10T03:41:13;3.58;;;3.10;;
62574;SDS011;70119;45.638;11.714;2023-06-10T03:43:40;3.78;;;3.15;;
62574;SDS011;70119;45.638;11.714;2023-06-10T03:46:06;4.10;;;3.35;;
62574;SDS011;70119;45.638;11.714;2023-06-10T03:48:32;4.68;;;3.40;;
62574;SDS011;70119;45.638;11.714;2023-06-10T03:50:58;4.78;;;3.13;;
62574;SDS011;70119;45.638;11.714;2023-06-10T03:53:24;4.40;;;3.10;;
62574;SDS011;70119;45.638;11.714;2023-06-10T03:55:50;3.90;;;3.30;;
62574;SDS011;70119;45.638;11.714;2023-06-10T03:58:16;4.70;;;3.60;;
62574;SDS011;70119;45.638;11.714;2023-06-10T04:00:43;4.40;;;3.30;;
62574;SDS011;70119;45.638;11.714;2023-06-10T04:03:10;3.90;;;3.30;;
62574;SDS011;70119;45.638;11.714;2023-06-10T04:05:40;4.63;;;3.45;;
62574;SDS011;70119;45.638;11.714;2023-06-10T04:08:09;4.97;;;3.50;;
62574;SDS011;70119;45.638;11.714;2023-06-10T04:10:35;4.72;;;3.25;;
62574;SDS011;70119;45.638;11.714;2023-06-10T04:13:01;4.03;;;3.30;;
62574;SDS011;70119;45.638;11.714;2023-06-10T04:15:28;4.50;;;3.42;;
62574;SDS011;70119;45.638;11.714;2023-06-10T04:17:54;3.95;;;3.10;;
62574;SDS011;70119;45.638;11.714;2023-06-10T04:20:21;4.15;;;3.03;;
62574;SDS011;70119;45.638;11.714;2023-06-10T04:22:47;5.57;;;3.80;;
62574;SDS011;70119;45.638;11.714;2023-06-10T04:25:13;4.22;;;3.40;;
62574;SDS011;70119;45.638;11.714;2023-06-10T04:27:39;3.72;;;3.15;;
62574;SDS011;70119;45.638;11.714;2023-06-10T04:30:05;4.10;;;3.47;;
62574;SDS011;70119;45.638;11.714;2023-06-10T04:32:31;4.07;;;3.20;;
62574;SDS011;70119;45.638;11.714;2023-06-10T04:34:57;4.22;;;3.42;;
62574;SDS011;70119;45.638;11.714;2023-06-10T04:37:25;3.85;;;3.20;;
62574;SDS011;70119;45.638;11.714;2023-06-10T04:39:51;4.45;;;3.20;;
62574;SDS011;70119;45.638;11.714;2023-06-10T04:42:17;3.28;;;2.97;;
62574;SDS011;70119;45.638;11.714;2023-06-10T04:44:43;4.00;;;3.38;;
62574;SDS011;70119;45.638;11.714;2023-06-10T04:47:08;5.50;;;3.70;;
62574;SDS011;70119;45.638;11.714;2023-06-10T04:49:34;4.63;;;3.33;;
62574;SDS011;70119;45.638;11.714;2023-06-10T04:52:01;3.75;;;3.20;;
62574;SDS011;70119;45.638;11.714;2023-06-10T04:54:29;3.53;;;3.00;;
62574;SDS011;70119;45.638;11.714;2023-06-10T04:56:55;3.50;;;3.05;;
62574;SDS011;70119;45.638;11.714;2023-06-10T04:59:21;3.60;;;3.10;;
62574;SDS011;70119;45.638;11.714;2023-06-10T05:01:47;3.28;;;2.80;;
62574;SDS011;70119;45.638;11.714;2023-06-10T05:04:13;4.03;;;3.00;;
62574;SDS011;70119;45.638;11.714;2023-06-10T05:06:39;4.40;;;3.42;;
62574;SDS011;70119;45.638;11.714;2023-06-10T05:09:05;4.30;;;3.20;;
62574;SDS011;70119;45.638;11.714;2023-06-10T05:11:30;4.50;;;3.22;;
62574;SDS011;70119;45.638;11.714;2023-06-10T05:13:56;4.05;;;3.03;;
62574;SDS011;70119;45.638;11.714;2023-06-10T05:16:22;3.88;;;3.40;;
62574;SDS011;70119;45.638;11.714;2023-06-10T05:18:48;4.75;;;3.53;;
62574;SDS011;70119;45.638;11.714;2023-06-10T05:21:16;3.92;;;3.33;;
62574;SDS011;70119;45.638;11.714;2023-06-10T05:23:42;4.40;;;3.33;;
62574;SDS011;70119;45.638;11.714;2023-06-10T05:26:08;4.03;;;3.20;;
62574;SDS011;70119;45.638;11.714;2023-06-10T05:28:34;4.45;;;3.00;;
62574;SDS011;70119;45.638;11.714;2023-06-10T05:31:00;3.60;;;2.90;;
62574;SDS011;70119;45.638;11.714;2023-06-10T05:33:26;4.55;;;3.45;;
62574;SDS011;70119;45.638;11.714;2023-06-10T05:35:52;4.75;;;3.10;;
62574;SDS011;70119;45.638;11.714;2023-06-10T05:38:18;4.20;;;2.90;;
62574;SDS011;70119;45.638;11.714;2023-06-10T05:40:45;4.22;;;3.55;;
62574;SDS011;70119;45.638;11.714;2023-06-10T05:43:11;8.38;;;5.60;;
62574;SDS011;70119;45.638;11.714;2023-06-10T05:45:37;6.82;;;4.47;;
62574;SDS011;70119;45.638;11.714;2023-06-10T05:48:05;6.28;;;4.45;;
62574;SDS011;70119;45.638;11.714;2023-06-10T05:50:31;6.82;;;4.10;;
62574;SDS011;70119;45.638;11.714;2023-06-10T05:53:03;5.45;;;3.83;;
62574;SDS011;70119;45.638;11.714;2023-06-10T05:55:29;5.22;;;3.70;;
62574;SDS011;70119;45.638;11.714;2023-06-10T05:57:58;4.97;;;3.65;;
62574;SDS011;70119;45.638;11.714;2023-06-10T06:00:25;4.80;;;3.78;;
62574;SDS011;70119;45.638;11.714;2023-06-10T06:02:52;4.20;;;3.45;;
62574;SDS011;70119;45.638;11.714;2023-06-10T06:05:19;4.53;;;3.40;;
62574;SDS011;70119;45.638;11.714;2023-06-10T06:07:45;5.45;;;3.72;;
62574;SDS011;70119;45.638;11.714;2023-06-10T06:10:11;5.30;;;4.03;;
62574;SDS011;70119;45.638;11.714;2023-06-10T06:12:37;5.90;;;4.55;;
62574;SDS011;70119;45.638;11.714;2023-06-10T06:15:03;6.18;;;4.95;;
62574;SDS011;70119;45.638;11.714;2023-06-10T06:17:29;6.60;;;4.93;;
62574;SDS011;70119;45.638;11.714;2023-06-10T06:19:55;7.45;;;5.70;;
62574;SDS011;70119;45.638;11.714;2023-06-10T06:22:21;6.72;;;5.50;;
62574;SDS011;70119;45.638;11.714;2023-06-10T06:24:47;7.25;;;5.60;;
62574;SDS011;70119;45.638;11.714;2023-06-10T06:27:15;7.05;;;5.00;;
62574;SDS011;70119;45.638;11.714;2023-06-10T06:29:41;6.93;;;5.53;;
62574;SDS011;70119;45.638;11.714;2023-06-10T06:32:07;7.22;;;5.43;;
62574;SDS011;70119;45.638;11.714;2023-06-10T06:34:33;7.35;;;5.80;;
62574;SDS011;70119;45.638;11.714;2023-06-10T06:36:59;7.65;;;4.70;;
62574;SDS011;70119;45.638;11.714;2023-06-10T06:39:25;5.63;;;4.00;;
62574;SDS011;70119;45.638;11.714;2023-06-10T06:41:50;5.38;;;4.05;;
62574;SDS011;70119;45.638;11.714;2023-06-10T06:44:16;6.30;;;4.50;;
62574;SDS011;70119;45.638;11.714;2023-06-10T06:46:42;5.57;;;4.38;;
62574;SDS011;70119;45.638;11.714;2023-06-10T06:49:08;5.75;;;4.28;;
62574;SDS011;70119;45.638;11.714;2023-06-10T06:51:34;5.93;;;4.45;;
62574;SDS011;70119;45.638;11.714;2023-06-10T06:54:00;5.60;;;4.60;;
62574;SDS011;70119;45.638;11.714;2023-06-10T06:56:26;6.50;;;4.50;;
62574;SDS011;70119;45.638;11.714;2023-06-10T06:58:53;5.30;;;4.28;;
62574;SDS011;70119;45.638;11.714;2023-06-10T07:01:19;5.78;;;4.40;;
62574;SDS011;70119;45.638;11.714;2023-06-10T07:03:45;5.72;;;3.90;;
62574;SDS011;70119;45.638;11.714;2023-06-10T07:06:12;5.75;;;4.53;;
62574;SDS011;70119;45.638;11.714;2023-06-10T07:08:38;5.10;;;3.75;;
62574;SDS011;70119;45.638;11.714;2023-06-10T07:11:04;6.40;;;4.25;;
62574;SDS011;70119;45.638;11.714;2023-06-10T07:13:30;5.60;;;4.30;;
62574;SDS011;70119;45.638;11.714;2023-06-10T07:15:56;5.30;;;4.07;;
62574;SDS011;70119;45.638;11.714;2023-06-10T07:18:22;4.85;;;3.90;;
62574;SDS011;70119;45.638;11.714;2023-06-10T07:20:48;4.78;;;3.67;;
62574;SDS011;70119;45.638;11.714;2023-06-10T07:23:14;5.35;;;3.90;;
62574;SDS011;70119;45.638;11.714;2023-06-10T07:25:41;5.70;;;4.03;;
62574;SDS011;70119;45.638;11.714;2023-06-10T07:28:07;5.60;;;3.92;;
62574;SDS011;70119;45.638;11.714;2023-06-10T07:30:33;4.70;;;3.88;;
62574;SDS011;70119;45.638;11.714;2023-06-10T07:32:59;5.50;;;3.90;;
62574;SDS011;70119;45.638;11.714;2023-06-10T07:35:26;6.07;;;3.80;;
62574;SDS011;70119;45.638;11.714;2023-06-10T07:37:52;5.95;;;3.95;;
62574;SDS011;70119;45.638;11.714;2023-06-10T07:40:18;5.03;;;3.80;;
62574;SDS011;70119;45.638;11.714;2023-06-10T07:42:44;8.82;;;4.20;;
62574;SDS011;70119;45.638;11.714;2023-06-10T07:45:10;5.78;;;4.03;;
62574;SDS011;70119;45.638;11.714;2023-06-10T07:47:36;8.52;;;4.40;;
62574;SDS011;70119;45.638;11.714;2023-06-10T07:50:02;5.43;;;3.72;;
62574;SDS011;70119;45.638;11.714;2023-06-10T07:52:28;5.43;;;4.20;;
62574;SDS011;70119;45.638;11.714;2023-06-10T07:54:54;8.02;;;3.83;;
62574;SDS011;70119;45.638;11.714;2023-06-10T07:57:20;6.60;;;3.80;;
62574;SDS011;70119;45.638;11.714;2023-06-10T07:59:45;7.97;;;4.10;;
62574;SDS011;70119;45.638;11.714;2023-06-10T08:02:11;6.00;;;4.20;;
62574;SDS011;70119;45.638;11.714;2023-06-10T08:04:37;5.60;;;4.20;;
62574;SDS011;70119;45.638;11.714;2023-06-10T08:07:03;5.50;;;3.95;;
62574;SDS011;70119;45.638;11.714;2023-06-10T08:09:29;10.05;;;4.00;;
62574;SDS011;70119;45.638;11.714;2023-06-10T08:11:55;5.97;;;4.00;;
62574;SDS011;70119;45.638;11.714;2023-06-10T08:14:20;6.80;;;4.10;;
62574;SDS011;70119;45.638;11.714;2023-06-10T08:16:46;5.18;;;4.00;;
62574;SDS011;70119;45.638;11.714;2023-06-10T08:19:12;5.90;;;3.90;;
62574;SDS011;70119;45.638;11.714;2023-06-10T08:21:38;7.22;;;4.43;;
62574;SDS011;70119;45.638;11.714;2023-06-10T08:24:05;7.88;;;5.25;;
62574;SDS011;70119;45.638;11.714;2023-06-10T08:26:32;7.68;;;5.57;;
62574;SDS011;70119;45.638;11.714;2023-06-10T08:28:57;7.28;;;5.55;;
62574;SDS011;70119;45.638;11.714;2023-06-10T08:31:23;7.00;;;5.15;;
62574;SDS011;70119;45.638;11.714;2023-06-10T08:33:49;8.07;;;5.55;;
62574;SDS011;70119;45.638;11.714;2023-06-10T08:36:15;6.78;;;4.72;;
62574;SDS011;70119;45.638;11.714;2023-06-10T08:38:41;6.35;;;4.90;;
62574;SDS011;70119;45.638;11.714;2023-06-10T08:41:06;6.57;;;4.85;;
62574;SDS011;70119;45.638;11.714;2023-06-10T08:43:42;6.57;;;4.95;;
62574;SDS011;70119;45.638;11.714;2023-06-10T08:46:12;6.30;;;4.88;;
62574;SDS011;70119;45.638;11.714;2023-06-10T08:48:43;6.93;;;5.18;;
62574;SDS011;70119;45.638;11.714;2023-06-10T08:51:10;6.03;;;4.30;;
62574;SDS011;70119;45.638;11.714;2023-06-10T08:53:37;6.30;;;4.75;;
62574;SDS011;70119;45.638;11.714;2023-06-10T08:56:10;7.13;;;5.05;;
62574;SDS011;70119;45.638;11.714;2023-06-10T08:58:36;7.80;;;4.75;;
62574;SDS011;70119;45.638;11.714;2023-06-10T09:01:07;6.53;;;4.43;;
62574;SDS011;70119;45.638;11.714;2023-06-10T09:03:35;7.07;;;4.38;;
62574;SDS011;70119;45.638;11.714;2023-06-10T09:06:04;7.47;;;4.70;;
62574;SDS011;70119;45.638;11.714;2023-06-10T09:08:31;6.00;;;4.53;;
62574;SDS011;70119;45.638;11.714;2023-06-10T09:10:59;6.10;;;4.57;;
62574;SDS011;70119;45.638;11.714;2023-06-10T09:13:26;6.50;;;4.60;;
62574;SDS011;70119;45.638;11.714;2023-06-10T09:15:52;5.82;;;4.60;;
62574;SDS011;70119;45.638;11.714;2023-06-10T09:18:18;6.30;;;4.90;;
62574;SDS011;70119;45.638;11.714;2023-06-10T09:20:45;6.40;;;5.10;;
62574;SDS011;70119;45.638;11.714;2023-06-10T09:23:11;6.75;;;5.03;;
62574;SDS011;70119;45.638;11.714;2023-06-10T09:25:38;6.97;;;5.00;;
62574;SDS011;70119;45.638;11.714;2023-06-10T09:28:04;6.82;;;4.90;;
62574;SDS011;70119;45.638;11.714;2023-06-10T09:30:37;7.70;;;5.07;;
62574;SDS011;70119;45.638;11.714;2023-06-10T09:33:09;5.93;;;4.68;;
62574;SDS011;70119;45.638;11.714;2023-06-10T09:35:37;7.47;;;5.47;;
62574;SDS011;70119;45.638;11.714;2023-06-10T09:38:15;7.57;;;5.07;;
62574;SDS011;70119;45.638;11.714;2023-06-10T09:40:50;6.95;;;4.85;;
62574;SDS011;70119;45.638;11.714;2023-06-10T09:43:17;6.63;;;4.78;;
62574;SDS011;70119;45.638;11.714;2023-06-10T09:45:43;7.28;;;4.65;;
62574;SDS011;70119;45.638;11.714;2023-06-10T09:48:09;7.45;;;5.47;;
62574;SDS011;70119;45.638;11.714;2023-06-10T09:50:41;7.72;;;5.70;;
62574;SDS011;70119;45.638;11.714;2023-06-10T09:53:11;8.75;;;6.53;;
62574;SDS011;70119;45.638;11.714;2023-06-10T09:55:38;9.98;;;7.13;;
62574;SDS011;70119;45.638;11.714;2023-06-10T09:58:06;8.45;;;6.93;;
62574;SDS011;70119;45.638;11.714;2023-06-10T10:00:32;10.73;;;7.10;;
62574;SDS011;70119;45.638;11.714;2023-06-10T10:02:59;10.65;;;8.25;;
62574;SDS011;70119;45.638;11.714;2023-06-10T10:05:26;10.13;;;7.57;;
62574;SDS011;70119;45.638;11.714;2023-06-10T10:07:52;8.65;;;6.65;;
62574;SDS011;70119;45.638;11.714;2023-06-10T10:10:21;8.80;;;6.60;;
62574;SDS011;70119;45.638;11.714;2023-06-10T10:12:48;8.20;;;5.60;;
62574;SDS011;70119;45.638;11.714;2023-06-10T10:15:18;7.97;;;6.13;;
62574;SDS011;70119;45.638;11.714;2023-06-10T10:17:52;8.45;;;5.50;;
62574;SDS011;70119;45.638;11.714;2023-06-10T10:20:22;8.95;;;6.07;;
62574;SDS011;70119;45.638;11.714;2023-06-10T10:22:52;8.32;;;5.40;;
62574;SDS011;70119;45.638;11.714;2023-06-10T10:25:23;7.60;;;5.60;;
62574;SDS011;70119;45.638;11.714;2023-06-10T10:27:57;9.23;;;6.30;;
62574;SDS011;70119;45.638;11.714;2023-06-10T10:30:30;8.55;;;5.70;;
62574;SDS011;70119;45.638;11.714;2023-06-10T10:33:18;7.68;;;5.60;;
62574;SDS011;70119;45.638;11.714;2023-06-10T10:35:48;8.70;;;6.25;;
62574;SDS011;70119;45.638;11.714;2023-06-10T10:38:15;7.68;;;5.55;;
62574;SDS011;70119;45.638;11.714;2023-06-10T10:40:42;8.27;;;5.72;;
62574;SDS011;70119;45.638;11.714;2023-06-10T10:43:09;9.85;;;6.13;;
62574;SDS011;70119;45.638;11.714;2023-06-10T10:45:36;8.10;;;5.78;;
62574;SDS011;70119;45.638;11.714;2023-06-10T10:48:10;8.85;;;6.65;;
62574;SDS011;70119;45.638;11.714;2023-06-10T10:50:38;10.68;;;7.88;;
62574;SDS011;70119;45.638;11.714;2023-06-10T10:53:04;9.45;;;7.65;;
62574;SDS011;70119;45.638;11.714;2023-06-10T10:55:31;9.20;;;6.70;;
62574;SDS011;70119;45.638;11.714;2023-06-10T10:57:58;9.32;;;6.53;;
62574;SDS011;70119;45.638;11.714;2023-06-10T11:00:35;8.77;;;6.40;;
62574;SDS011;70119;45.638;11.714;2023-06-10T11:03:12;10.20;;;6.30;;
62574;SDS011;70119;45.638;11.714;2023-06-10T11:08:09;9.02;;;6.53;;
62574;SDS011;70119;45.638;11.714;2023-06-10T11:10:50;9.90;;;6.85;;
62574;SDS011;70119;45.638;11.714;2023-06-10T11:13:21;9.07;;;7.07;;
62574;SDS011;70119;45.638;11.714;2023-06-10T11:15:48;9.02;;;6.72;;
62574;SDS011;70119;45.638;11.714;2023-06-10T11:18:34;8.98;;;6.50;;
62574;SDS011;70119;45.638;11.714;2023-06-10T11:21:04;9.00;;;6.57;;
62574;SDS011;70119;45.638;11.714;2023-06-10T11:23:32;8.15;;;6.68;;
62574;SDS011;70119;45.638;11.714;2023-06-10T11:26:09;8.75;;;6.80;;
62574;SDS011;70119;45.638;11.714;2023-06-10T11:28:41;10.13;;;7.85;;
62574;SDS011;70119;45.638;11.714;2023-06-10T11:31:19;10.05;;;7.40;;
62574;SDS011;70119;45.638;11.714;2023-06-10T11:34:01;9.40;;;7.03;;
62574;SDS011;70119;45.638;11.714;2023-06-10T11:36:30;8.43;;;6.78;;
62574;SDS011;70119;45.638;11.714;2023-06-10T11:38:57;8.85;;;6.75;;
62574;SDS011;70119;45.638;11.714;2023-06-10T11:41:31;9.15;;;6.75;;
62574;SDS011;70119;45.638;11.714;2023-06-10T11:44:01;10.32;;;7.25;;
62574;SDS011;70119;45.638;11.714;2023-06-10T11:46:33;9.90;;;7.25;;
62574;SDS011;70119;45.638;11.714;2023-06-10T11:49:00;10.68;;;7.75;;
62574;SDS011;70119;45.638;11.714;2023-06-10T11:51:37;9.60;;;6.97;;
62574;SDS011;70119;45.638;11.714;2023-06-10T11:54:05;10.02;;;7.07;;
62574;SDS011;70119;45.638;11.714;2023-06-10T11:56:33;10.75;;;7.40;;
62574;SDS011;70119;45.638;11.714;2023-06-10T11:59:00;9.52;;;6.85;;
62574;SDS011;70119;45.638;11.714;2023-06-10T12:04:04;9.25;;;7.07;;
62574;SDS011;70119;45.638;11.714;2023-06-10T12:09:06;9.82;;;7.82;;
62574;SDS011;70119;45.638;11.714;2023-06-10T12:11:38;8.32;;;6.20;;
62574;SDS011;70119;45.638;11.714;2023-06-10T12:14:05;8.65;;;6.75;;
62574;SDS011;70119;45.638;11.714;2023-06-10T12:16:31;9.18;;;6.65;;
62574;SDS011;70119;45.638;11.714;2023-06-10T12:19:03;9.90;;;7.50;;
62574;SDS011;70119;45.638;11.714;2023-06-10T12:21:32;10.57;;;7.50;;
62574;SDS011;70119;45.638;11.714;2023-06-10T12:24:04;10.00;;;7.18;;
62574;SDS011;70119;45.638;11.714;2023-06-10T12:26:40;10.27;;;7.22;;
62574;SDS011;70119;45.638;11.714;2023-06-10T12:32:02;8.75;;;6.85;;
62574;SDS011;70119;45.638;11.714;2023-06-10T12:34:31;10.30;;;7.10;;
62574;SDS011;70119;45.638;11.714;2023-06-10T12:37:02;8.32;;;6.53;;
62574;SDS011;70119;45.638;11.714;2023-06-10T12:39:30;8.32;;;6.93;;
62574;SDS011;70119;45.638;11.714;2023-06-10T12:41:57;8.88;;;7.25;;
62574;SDS011;70119;45.638;11.714;2023-06-10T12:44:33;8.45;;;6.53;;
62574;SDS011;70119;45.638;11.714;2023-06-10T12:47:01;9.60;;;7.35;;
62574;SDS011;70119;45.638;11.714;2023-06-10T12:49:37;9.80;;;7.40;;
62574;SDS011;70119;45.638;11.714;2023-06-10T12:52:03;10.02;;;6.82;;
62574;SDS011;70119;45.638;11.714;2023-06-10T12:54:30;8.52;;;6.78;;
62574;SDS011;70119;45.638;11.714;2023-06-10T12:56:56;8.85;;;6.82;;
62574;SDS011;70119;45.638;11.714;2023-06-10T12:59:21;9.35;;;6.80;;
62574;SDS011;70119;45.638;11.714;2023-06-10T13:01:52;9.77;;;7.07;;
62574;SDS011;70119;45.638;11.714;2023-06-10T13:04:19;8.23;;;6.25;;
62574;SDS011;70119;45.638;11.714;2023-06-10T13:06:45;8.30;;;6.50;;
62574;SDS011;70119;45.638;11.714;2023-06-10T13:09:12;8.32;;;6.55;;
62574;SDS011;70119;45.638;11.714;2023-06-10T13:11:39;7.50;;;6.22;;
62574;SDS011;70119;45.638;11.714;2023-06-10T13:14:05;9.75;;;6.90;;
62574;SDS011;70119;45.638;11.714;2023-06-10T13:16:31;8.43;;;6.60;;
62574;SDS011;70119;45.638;11.714;2023-06-10T13:18:58;7.75;;;6.32;;
62574;SDS011;70119;45.638;11.714;2023-06-10T13:21:24;8.90;;;6.25;;
62574;SDS011;70119;45.638;11.714;2023-06-10T13:23:51;10.23;;;6.45;;
62574;SDS011;70119;45.638;11.714;2023-06-10T13:26:17;8.02;;;6.20;;
62574;SDS011;70119;45.638;11.714;2023-06-10T13:28:43;8.43;;;6.50;;
62574;SDS011;70119;45.638;11.714;2023-06-10T13:31:09;10.40;;;6.57;;
62574;SDS011;70119;45.638;11.714;2023-06-10T13:33:36;8.57;;;6.32;;
62574;SDS011;70119;45.638;11.714;2023-06-10T13:36:02;9.07;;;5.97;;
62574;SDS011;70119;45.638;11.714;2023-06-10T13:38:28;10.43;;;6.30;;
62574;SDS011;70119;45.638;11.714;2023-06-10T13:40:54;9.52;;;6.10;;
62574;SDS011;70119;45.638;11.714;2023-06-10T13:43:19;8.77;;;6.05;;
62574;SDS011;70119;45.638;11.714;2023-06-10T13:45:45;7.53;;;5.90;;
62574;SDS011;70119;45.638;11.714;2023-06-10T13:48:11;10.05;;;6.20;;
62574;SDS011;70119;45.638;11.714;2023-06-10T13:50:38;8.60;;;5.57;;
62574;SDS011;70119;45.638;11.714;2023-06-10T13:53:04;8.68;;;6.20;;
62574;SDS011;70119;45.638;11.714;2023-06-10T13:55:30;7.80;;;5.68;;
62574;SDS011;70119;45.638;11.714;2023-06-10T13:57:55;7.35;;;5.60;;
62574;SDS011;70119;45.638;11.714;2023-06-10T14:00:21;8.68;;;6.03;;
62574;SDS011;70119;45.638;11.714;2023-06-10T14:02:47;8.88;;;6.10;;
62574;SDS011;70119;45.638;11.714;2023-06-10T14:05:13;9.60;;;5.65;;
62574;SDS011;70119;45.638;11.714;2023-06-10T14:07:39;8.38;;;5.63;;
62574;SDS011;70119;45.638;11.714;2023-06-10T14:10:06;8.38;;;5.80;;
62574;SDS011;70119;45.638;11.714;2023-06-10T14:12:33;8.90;;;6.07;;
62574;SDS011;70119;45.638;11.714;2023-06-10T14:15:00;9.15;;;5.50;;
62574;SDS011;70119;45.638;11.714;2023-06-10T14:17:26;9.35;;;6.00;;
62574;SDS011;70119;45.638;11.714;2023-06-10T14:19:52;8.63;;;5.97;;
62574;SDS011;70119;45.638;11.714;2023-06-10T14:22:18;8.80;;;6.22;;
62574;SDS011;70119;45.638;11.714;2023-06-10T14:24:44;10.82;;;6.30;;
62574;SDS011;70119;45.638;11.714;2023-06-10T14:27:10;9.02;;;5.90;;
62574;SDS011;70119;45.638;11.714;2023-06-10T14:29:35;10.20;;;6.38;;
62574;SDS011;70119;45.638;11.714;2023-06-10T14:32:01;9.52;;;6.10;;
62574;SDS011;70119;45.638;11.714;2023-06-10T14:34:27;8.18;;;5.80;;
62574;SDS011;70119;45.638;11.714;2023-06-10T14:36:55;8.85;;;6.00;;
62574;SDS011;70119;45.638;11.714;2023-06-10T14:39:21;8.23;;;5.35;;
62574;SDS011;70119;45.638;11.714;2023-06-10T14:41:47;8.80;;;5.22;;
62574;SDS011;70119;45.638;11.714;2023-06-10T14:44:13;8.70;;;5.53;;
62574;SDS011;70119;45.638;11.714;2023-06-10T14:46:39;7.70;;;5.25;;
62574;SDS011;70119;45.638;11.714;2023-06-10T14:49:05;8.45;;;5.53;;